sensor_id;sensor_type;location;lat;lon;timestamp;pressure;altitude;pressure_sealevel;temperature;humidity
39223;BME280;24936;46.328;11.026;2024-03-02T00:01:53;93174.91;;;4.65;100.00
39223;BME280;24936;46.328;11.026;2024-03-02T00:04:19;93176.00;;;4.62;100.00
39223;BME280;24936;46.328;11.026;2024-03-02T00:06:44;93184.66;;;4.63;100.00
39223;BME280;24936;46.328;11.026;2024-03-02T00:09:10;93178.59;;;4.62;100.00
39223;BME280;24936;46.328;11.026;2024-03-02T00:11:39;93178.59;;;4.62;100.00
39223;BME280;24936;46.328;11.026;2024-03-02T00:14:05;93180.25;;;4.63;100.00
39223;BME280;24936;46.328;11.026;2024-03-02T00:16:31;93179.69;;;4.59;100.00
39223;BME280;24936;46.328;11.026;2024-03-02T00:19:01;93181.22;;;4.72;100.00
39223;BME280;24936;46.328;11.026;2024-03-02T00:21:27;93186.31;;;4.73;100.00
39223;BME280;24936;46.328;11.026;2024-03-02T00:23:55;93180.69;;;4.78;100.00
39223;BME280;24936;46.328;11.026;2024-03-02T00:26:20;93176.16;;;4.80;100.00
39223;BME280;24936;46.328;11.026;2024-03-02T00:28:46;93180.97;;;4.75;100.00
39223;BME280;24936;46.328;11.026;2024-03-02T00:31:13;93176.00;;;4.52;100.00
39223;BME280;24936;46.328;11.026;2024-03-02T00:36:09;93177.47;;;4.45;100.00
39223;BME280;24936;46.328;11.026;2024-03-02T00:38:43;93180.09;;;4.45;100.00
39223;BME280;24936;46.328;11.026;2024-03-02T00:41:16;93172.78;;;4.29;100.00
39223;BME280;24936;46.328;11.026;2024-03-02T00:43:44;93179.66;;;4.30;100.00
39223;BME280;24936;46.328;11.026;2024-03-02T00:46:11;93177.34;;;4.37;100.00
39223;BME280;24936;46.328;11.026;2024-03-02T00:48:39;93181.84;;;4.35;100.00
39223;BME280;24936;46.328;11.026;2024-03-02T00:51:05;93182.94;;;4.42;100.00
39223;BME280;24936;46.328;11.026;2024-03-02T00:53:31;93189.81;;;4.43;100.00
39223;BME280;24936;46.328;11.026;2024-03-02T00:55:58;93180.34;;;4.42;100.00
39223;BME280;24936;46.328;11.026;2024-03-02T00:58:24;93181.03;;;4.44;100.00
39223;BME280;24936;46.328;11.026;2024-03-02T01:00:50;93184.59;;;4.43;100.00
39223;BME280;24936;46.328;11.026;2024-03-02T01:03:15;93185.69;;;4.40;100.00
39223;BME280;24936;46.328;11.026;2024-03-02T01:05:41;93181.59;;;4.48;100.00
39223;BME280;24936;46.328;11.026;2024-03-02T01:08:08;93181.63;;;4.57;100.00
39223;BME280;24936;46.328;11.026;2024-03-02T01:10:33;93182.41;;;4.38;100.00
39223;BME280;24936;46.328;11.026;2024-03-02T01:12:58;93180.47;;;4.31;100.00
39223;BME280;24936;46.328;11.026;2024-03-02T01:15:24;93174.16;;;4.33;100.00
39223;BME280;24936;46.328;11.026;2024-03-02T01:17:49;93179.81;;;4.48;100.00
39223;BME280;24936;46.328;11.026;2024-03-02T01:20:15;93179.53;;;4.41;100.00
39223;BME280;24936;46.328;11.026;2024-03-02T01:22:40;93172.91;;;4.27;100.00
39223;BME280;24936;46.328;11.026;2024-03-02T01:25:06;93173.28;;;4.13;100.00
39223;BME280;24936;46.328;11.026;2024-03-02T01:27:33;93172.69;;;4.40;100.00
39223;BME280;24936;46.328;11.026;2024-03-02T01:29:59;93176.34;;;4.28;100.00
39223;BME280;24936;46.328;11.026;2024-03-02T01:32:25;93178.78;;;4.10;100.00
39223;BME280;24936;46.328;11.026;2024-03-02T01:34:50;93175.56;;;3.96;100.00
39223;BME280;24936;46.328;11.026;2024-03-02T01:37:16;93174.69;;;3.86;100.00
39223;BME280;24936;46.328;11.026;2024-03-02T01:39:41;93175.34;;;3.78;100.00
39223;BME280;24936;46.328;11.026;2024-03-02T01:42:07;93172.53;;;3.91;100.00
39223;BME280;24936;46.328;11.026;2024-03-02T01:44:32;93174.28;;;3.81;100.00
39223;BME280;24936;46.328;11.026;2024-03-02T01:46:58;93175.44;;;3.98;100.00
39223;BME280;24936;46.328;11.026;2024-03-02T01:49:23;93175.63;;;3.85;100.00
39223;BME280;24936;46.328;11.026;2024-03-02T01:51:48;93169.19;;;3.79;100.00
39223;BME280;24936;46.328;11.026;2024-03-02T01:54:14;93175.63;;;3.85;100.00
39223;BME280;24936;46.328;11.026;2024-03-02T01:56:39;93178.09;;;3.77;100.00
39223;BME280;24936;46.328;11.026;2024-03-02T01:59:05;93167.16;;;3.83;100.00
39223;BME280;24936;46.328;11.026;2024-03-02T02:01:31;93181.88;;;3.73;100.00
39223;BME280;24936;46.328;11.026;2024-03-02T02:03:56;93181.63;;;3.76;100.00
39223;BME280;24936;46.328;11.026;2024-03-02T02:06:22;93187.88;;;3.63;100.00
39223;BME280;24936;46.328;11.026;2024-03-02T02:08:47;93183.31;;;3.56;100.00
39223;BME280;24936;46.328;11.026;2024-03-02T02:11:16;93181.66;;;3.55;100.00
39223;BME280;24936;46.328;11.026;2024-03-02T02:13:42;93180.16;;;3.52;100.00
39223;BME280;24936;46.328;11.026;2024-03-02T02:16:08;93174.69;;;3.55;100.00
39223;BME280;24936;46.328;11.026;2024-03-02T02:18:34;93190.31;;;3.55;100.00
39223;BME280;24936;46.328;11.026;2024-03-02T02:20:59;93176.34;;;3.87;100.00
39223;BME280;24936;46.328;11.026;2024-03-02T02:23:25;93174.53;;;3.78;100.00
39223;BME280;24936;46.328;11.026;2024-03-02T02:25:50;93180.19;;;3.83;100.00
39223;BME280;24936;46.328;11.026;2024-03-02T02:28:15;93173.44;;;3.80;100.00
39223;BME280;24936;46.328;11.026;2024-03-02T02:30:41;93170.66;;;3.72;100.00
39223;BME280;24936;46.328;11.026;2024-03-02T02:33:07;93175.31;;;3.69;100.00
39223;BME280;24936;46.328;11.026;2024-03-02T02:35:33;93177.22;;;3.66;100.00
39223;BME280;24936;46.328;11.026;2024-03-02T02:37:58;93175.44;;;3.67;100.00
39223;BME280;24936;46.328;11.026;2024-03-02T02:40:24;93175.31;;;3.69;100.00
39223;BME280;24936;46.328;11.026;2024-03-02T02:42:50;93172.09;;;3.86;100.00
39223;BME280;24936;46.328;11.026;2024-03-02T02:45:17;93173.16;;;4.15;100.00
39223;BME280;24936;46.328;11.026;2024-03-02T02:47:44;93162.63;;;4.26;100.00
39223;BME280;24936;46.328;11.026;2024-03-02T02:50:10;93162.59;;;4.16;100.00
39223;BME280;24936;46.328;11.026;2024-03-02T02:52:37;93157.44;;;4.36;100.00
39223;BME280;24936;46.328;11.026;2024-03-02T02:55:06;93155.25;;;4.31;100.00
39223;BME280;24936;46.328;11.026;2024-03-02T02:57:32;93163.44;;;4.26;100.00
39223;BME280;24936;46.328;11.026;2024-03-02T03:00:05;93166.41;;;4.12;100.00
39223;BME280;24936;46.328;11.026;2024-03-02T03:02:35;93162.00;;;4.03;100.00
39223;BME280;24936;46.328;11.026;2024-03-02T03:05:01;93164.88;;;4.00;100.00
39223;BME280;24936;46.328;11.026;2024-03-02T03:07:26;93176.94;;;4.01;100.00
39223;BME280;24936;46.328;11.026;2024-03-02T03:09:52;93171.63;;;4.02;100.00
39223;BME280;24936;46.328;11.026;2024-03-02T03:12:18;93165.56;;;4.02;100.00
39223;BME280;24936;46.328;11.026;2024-03-02T03:14:43;93167.06;;;4.04;100.00
39223;BME280;24936;46.328;11.026;2024-03-02T03:17:09;93167.50;;;4.09;100.00
39223;BME280;24936;46.328;11.026;2024-03-02T03:19:34;93164.09;;;4.19;100.00
39223;BME280;24936;46.328;11.026;2024-03-02T03:22:00;93160.94;;;4.15;100.00
39223;BME280;24936;46.328;11.026;2024-03-02T03:24:26;93161.66;;;4.17;100.00
39223;BME280;24936;46.328;11.026;2024-03-02T03:26:52;93161.78;;;4.25;100.00
39223;BME280;24936;46.328;11.026;2024-03-02T03:29:17;93162.09;;;4.22;100.00
39223;BME280;24936;46.328;11.026;2024-03-02T03:31:42;93167.81;;;4.16;100.00
39223;BME280;24936;46.328;11.026;2024-03-02T03:34:08;93153.56;;;4.20;100.00
39223;BME280;24936;46.328;11.026;2024-03-02T03:36:33;93168.00;;;4.24;100.00
39223;BME280;24936;46.328;11.026;2024-03-02T03:38:58;93162.59;;;4.16;100.00
39223;BME280;24936;46.328;11.026;2024-03-02T03:41:24;93169.47;;;4.17;100.00
39223;BME280;24936;46.328;11.026;2024-03-02T03:43:49;93164.50;;;4.14;100.00
39223;BME280;24936;46.328;11.026;2024-03-02T03:46:15;93173.56;;;4.10;100.00
39223;BME280;24936;46.328;11.026;2024-03-02T03:48:40;93164.50;;;4.14;100.00
39223;BME280;24936;46.328;11.026;2024-03-02T03:51:07;93171.63;;;4.12;100.00
39223;BME280;24936;46.328;11.026;2024-03-02T03:53:32;93168.72;;;4.05;100.00
39223;BME280;24936;46.328;11.026;2024-03-02T03:55:57;93172.69;;;4.00;100.00
39223;BME280;24936;46.328;11.026;2024-03-02T03:58:23;93168.75;;;4.15;100.00
39223;BME280;24936;46.328;11.026;2024-03-02T04:00:48;93174.34;;;4.01;100.00
39223;BME280;24936;46.328;11.026;2024-03-02T04:03:14;93172.13;;;3.96;100.00
39223;BME280;24936;46.328;11.026;2024-03-02T04:05:39;93174.28;;;3.91;100.00
39223;BME280;24936;46.328;11.026;2024-03-02T04:08:04;93179.50;;;3.91;100.00
39223;BME280;24936;46.328;11.026;2024-03-02T04:10:30;93176.34;;;3.87;100.00
39223;BME280;24936;46.328;11.026;2024-03-02T04:12:55;93186.63;;;3.89;100.00
39223;BME280;24936;46.328;11.026;2024-03-02T04:15:21;93184.78;;;3.79;100.00
39223;BME280;24936;46.328;11.026;2024-03-02T04:17:48;93186.59;;;3.79;100.00
39223;BME280;24936;46.328;11.026;2024-03-02T04:20:13;93190.53;;;3.73;100.00
39223;BME280;24936;46.328;11.026;2024-03-02T04:22:39;93197.56;;;3.82;100.00
39223;BME280;24936;46.328;11.026;2024-03-02T04:25:04;93192.16;;;3.95;100.00
39223;BME280;24936;46.328;11.026;2024-03-02T04:27:30;93200.03;;;3.84;100.00
39223;BME280;24936;46.328;11.026;2024-03-02T04:29:57;93202.06;;;3.80;100.00
39223;BME280;24936;46.328;11.026;2024-03-02T04:32:23;93200.03;;;3.84;100.00
39223;BME280;24936;46.328;11.026;2024-03-02T04:34:48;93205.16;;;3.95;100.00
39223;BME280;24936;46.328;11.026;2024-03-02T04:37:14;93206.75;;;3.87;100.00
39223;BME280;24936;46.328;11.026;2024-03-02T04:39:40;93198.47;;;4.03;100.00
39223;BME280;24936;46.328;11.026;2024-03-02T04:42:05;93197.06;;;3.98;100.00
39223;BME280;24936;46.328;11.026;2024-03-02T04:44:30;93203.13;;;3.99;100.00
39223;BME280;24936;46.328;11.026;2024-03-02T04:46:56;93198.69;;;3.90;100.00
39223;BME280;24936;46.328;11.026;2024-03-02T04:49:21;93207.47;;;3.98;100.00
39223;BME280;24936;46.328;11.026;2024-03-02T04:51:47;93208.53;;;3.86;100.00
39223;BME280;24936;46.328;11.026;2024-03-02T04:54:12;93213.47;;;3.89;100.00
39223;BME280;24936;46.328;11.026;2024-03-02T04:56:39;93212.69;;;3.98;100.00
39223;BME280;24936;46.328;11.026;2024-03-02T04:59:04;93207.47;;;3.89;100.00
39223;BME280;24936;46.328;11.026;2024-03-02T05:01:30;93204.47;;;3.93;100.00
39223;BME280;24936;46.328;11.026;2024-03-02T05:03:55;93209.66;;;3.93;100.00
39223;BME280;24936;46.328;11.026;2024-03-02T05:06:21;93211.03;;;3.97;100.00
39223;BME280;24936;46.328;11.026;2024-03-02T05:08:47;93216.09;;;3.89;100.00
39223;BME280;24936;46.328;11.026;2024-03-02T05:11:13;93216.09;;;3.89;100.00
39223;BME280;24936;46.328;11.026;2024-03-02T05:13:57;93226.59;;;3.78;100.00
39223;BME280;24936;46.328;11.026;2024-03-02T05:16:22;93226.84;;;3.75;100.00
39223;BME280;24936;46.328;11.026;2024-03-02T05:18:47;93229.94;;;3.90;100.00
39223;BME280;24936;46.328;11.026;2024-03-02T05:21:13;93219.84;;;3.96;100.00
39223;BME280;24936;46.328;11.026;2024-03-02T05:23:38;93234.66;;;4.06;100.00
39223;BME280;24936;46.328;11.026;2024-03-02T05:26:04;93229.25;;;3.97;100.00
39223;BME280;24936;46.328;11.026;2024-03-02T05:28:29;93231.88;;;3.97;100.00
39223;BME280;24936;46.328;11.026;2024-03-02T05:30:55;93241.72;;;3.94;100.00
39223;BME280;24936;46.328;11.026;2024-03-02T05:33:21;93238.69;;;4.20;100.00
39223;BME280;24936;46.328;11.026;2024-03-02T05:35:48;93242.81;;;4.22;100.00
39223;BME280;24936;46.328;11.026;2024-03-02T05:38:15;93248.03;;;3.91;100.00
39223;BME280;24936;46.328;11.026;2024-03-02T05:40:40;93247.97;;;3.81;100.00
39223;BME280;24936;46.328;11.026;2024-03-02T05:43:06;93241.94;;;3.81;100.00
39223;BME280;24936;46.328;11.026;2024-03-02T05:45:31;93245.63;;;3.78;100.00
39223;BME280;24936;46.328;11.026;2024-03-02T05:47:57;93250.81;;;3.78;100.00
39223;BME280;24936;46.328;11.026;2024-03-02T05:50:22;93249.56;;;3.73;100.00
39223;BME280;24936;46.328;11.026;2024-03-02T05:52:47;93255.91;;;3.80;100.00
39223;BME280;24936;46.328;11.026;2024-03-02T05:55:13;93254.34;;;3.98;100.00
39223;BME280;24936;46.328;11.026;2024-03-02T05:57:38;93251.88;;;3.97;100.00
39223;BME280;24936;46.328;11.026;2024-03-02T06:00:10;93251.03;;;3.87;100.00
39223;BME280;24936;46.328;11.026;2024-03-02T06:02:39;93257.50;;;3.71;100.00
39223;BME280;24936;46.328;11.026;2024-03-02T06:05:05;93252.47;;;3.58;100.00
39223;BME280;24936;46.328;11.026;2024-03-02T06:07:32;93254.31;;;3.89;100.00
39223;BME280;24936;46.328;11.026;2024-03-02T06:09:58;93254.25;;;3.79;100.00
39223;BME280;24936;46.328;11.026;2024-03-02T06:12:23;93259.38;;;3.90;100.00
39223;BME280;24936;46.328;11.026;2024-03-02T06:14:49;93258.69;;;3.88;100.00
39223;BME280;24936;46.328;11.026;2024-03-02T06:17:14;93263.97;;;3.77;100.00
39223;BME280;24936;46.328;11.026;2024-03-02T06:19:40;93266.56;;;3.77;100.00
39223;BME280;24936;46.328;11.026;2024-03-02T06:22:05;93267.28;;;3.79;100.00
39223;BME280;24936;46.328;11.026;2024-03-02T06:24:31;93267.66;;;3.95;100.00
39223;BME280;24936;46.328;11.026;2024-03-02T06:26:56;93272.97;;;3.94;100.00
39223;BME280;24936;46.328;11.026;2024-03-02T06:29:22;93263.50;;;3.93;100.00
39223;BME280;24936;46.328;11.026;2024-03-02T06:31:47;93278.47;;;4.01;100.00
39223;BME280;24936;46.328;11.026;2024-03-02T06:34:13;93273.84;;;4.04;100.00
39223;BME280;24936;46.328;11.026;2024-03-02T06:36:39;93276.88;;;4.09;100.00
39223;BME280;24936;46.328;11.026;2024-03-02T06:39:05;93271.97;;;4.16;100.00
39223;BME280;24936;46.328;11.026;2024-03-02T06:41:31;93271.78;;;4.29;100.00
39223;BME280;24936;46.328;11.026;2024-03-02T06:43:56;93266.88;;;4.36;100.00
39223;BME280;24936;46.328;11.026;2024-03-02T06:46:25;93263.03;;;4.40;100.00
39223;BME280;24936;46.328;11.026;2024-03-02T06:48:51;93262.72;;;4.23;100.00
39223;BME280;24936;46.328;11.026;2024-03-02T06:51:16;93265.44;;;4.22;100.00
39223;BME280;24936;46.328;11.026;2024-03-02T06:53:41;93271.19;;;4.25;100.00
39223;BME280;24936;46.328;11.026;2024-03-02T06:56:07;93268.03;;;4.22;100.00
39223;BME280;24936;46.328;11.026;2024-03-02T06:58:36;93267.78;;;4.25;100.00
39223;BME280;24936;46.328;11.026;2024-03-02T07:01:01;93265.97;;;4.25;100.00
39223;BME280;24936;46.328;11.026;2024-03-02T07:03:27;93272.34;;;4.33;100.00
39223;BME280;24936;46.328;11.026;2024-03-02T07:05:52;93261.91;;;4.33;100.00
39223;BME280;24936;46.328;11.026;2024-03-02T07:08:17;93268.53;;;4.37;100.00
39223;BME280;24936;46.328;11.026;2024-03-02T07:10:43;93269.22;;;4.49;100.00
39223;BME280;24936;46.328;11.026;2024-03-02T07:13:08;93264.31;;;4.46;100.00
39223;BME280;24936;46.328;11.026;2024-03-02T07:15:34;93272.03;;;4.67;100.00
39223;BME280;24936;46.328;11.026;2024-03-02T07:18:15;93267.81;;;4.85;100.00
39223;BME280;24936;46.328;11.026;2024-03-02T07:20:40;93260.16;;;4.84;100.00
39223;BME280;24936;46.328;11.026;2024-03-02T07:23:05;93256.56;;;4.85;100.00
39223;BME280;24936;46.328;11.026;2024-03-02T07:25:31;93263.00;;;4.81;100.00
39223;BME280;24936;46.328;11.026;2024-03-02T07:27:56;93265.09;;;4.97;100.00
39223;BME280;24936;46.328;11.026;2024-03-02T07:30:22;93265.66;;;5.00;100.00
39223;BME280;24936;46.328;11.026;2024-03-02T07:32:50;93256.06;;;5.11;100.00
39223;BME280;24936;46.328;11.026;2024-03-02T07:35:15;93263.75;;;5.22;100.00
39223;BME280;24936;46.328;11.026;2024-03-02T07:37:42;93263.88;;;5.40;100.00
39223;BME280;24936;46.328;11.026;2024-03-02T07:40:08;93258.41;;;5.14;100.00
39223;BME280;24936;46.328;11.026;2024-03-02T07:42:40;93267.31;;;5.11;100.00
39223;BME280;24936;46.328;11.026;2024-03-02T07:45:06;93267.31;;;5.11;100.00
39223;BME280;24936;46.328;11.026;2024-03-02T07:47:35;93271.44;;;5.04;100.00
39223;BME280;24936;46.328;11.026;2024-03-02T07:50:01;93267.00;;;4.95;100.00
39223;BME280;24936;46.328;11.026;2024-03-02T07:52:27;93274.69;;;4.86;100.00
39223;BME280;24936;46.328;11.026;2024-03-02T07:54:52;93272.78;;;4.88;100.00
39223;BME280;24936;46.328;11.026;2024-03-02T07:57:17;93271.16;;;4.97;100.00
39223;BME280;24936;46.328;11.026;2024-03-02T07:59:43;93278.81;;;4.99;100.00
39223;BME280;24936;46.328;11.026;2024-03-02T08:02:08;93279.94;;;5.06;100.00
39223;BME280;24936;46.328;11.026;2024-03-02T08:04:34;93276.66;;;5.04;100.00
39223;BME280;24936;46.328;11.026;2024-03-02T08:07:00;93272.78;;;4.98;100.00
39223;BME280;24936;46.328;11.026;2024-03-02T08:09:25;93283.91;;;5.10;100.00
39223;BME280;24936;46.328;11.026;2024-03-02T08:11:51;93285.72;;;5.19;100.00
39223;BME280;24936;46.328;11.026;2024-03-02T08:14:16;93287.63;;;5.17;100.00
39223;BME280;24936;46.328;11.026;2024-03-02T08:16:42;93290.50;;;5.14;100.00
39223;BME280;24936;46.328;11.026;2024-03-02T08:19:07;93294.50;;;5.09;100.00
39223;BME280;24936;46.328;11.026;2024-03-02T08:21:34;93288.44;;;5.18;100.00
39223;BME280;24936;46.328;11.026;2024-03-02T08:24:02;93296.44;;;5.16;100.00
39223;BME280;24936;46.328;11.026;2024-03-02T08:26:27;93297.22;;;5.17;100.00
39223;BME280;24936;46.328;11.026;2024-03-02T08:28:55;93299.72;;;5.09;100.00
39223;BME280;24936;46.328;11.026;2024-03-02T08:31:20;93295.19;;;5.20;100.00
39223;BME280;24936;46.328;11.026;2024-03-02T08:33:46;93295.19;;;5.40;100.00
39223;BME280;24936;46.328;11.026;2024-03-02T08:36:11;93299.06;;;5.56;100.00
39223;BME280;24936;46.328;11.026;2024-03-02T08:38:37;93300.97;;;5.54;100.00
39223;BME280;24936;46.328;11.026;2024-03-02T08:41:02;93306.88;;;5.56;100.00
39223;BME280;24936;46.328;11.026;2024-03-02T08:43:28;93302.34;;;5.68;100.00
39223;BME280;24936;46.328;11.026;2024-03-02T08:45:54;93304.69;;;5.61;100.00
39223;BME280;24936;46.328;11.026;2024-03-02T08:48:19;93312.78;;;5.68;100.00
39223;BME280;24936;46.328;11.026;2024-03-02T08:50:46;93316.22;;;5.58;100.00
39223;BME280;24936;46.328;11.026;2024-03-02T08:53:11;93304.38;;;5.74;100.00
39223;BME280;24936;46.328;11.026;2024-03-02T08:55:37;93304.53;;;5.92;100.00
39223;BME280;24936;46.328;11.026;2024-03-02T08:58:02;93310.16;;;5.87;100.00
39223;BME280;24936;46.328;11.026;2024-03-02T09:00:28;93312.34;;;6.11;100.00
39223;BME280;24936;46.328;11.026;2024-03-02T09:02:54;93326.09;;;6.14;100.00
39223;BME280;24936;46.328;11.026;2024-03-02T09:05:19;93333.31;;;6.39;100.00
39223;BME280;24936;46.328;11.026;2024-03-02T09:07:45;93337.63;;;6.21;100.00
39223;BME280;24936;46.328;11.026;2024-03-02T09:10:10;93348.63;;;6.24;100.00
39223;BME280;24936;46.328;11.026;2024-03-02T09:12:36;93351.94;;;6.26;100.00
39223;BME280;24936;46.328;11.026;2024-03-02T09:15:03;93353.19;;;6.22;100.00
39223;BME280;24936;46.328;11.026;2024-03-02T09:17:29;93356.91;;;6.20;100.00
39223;BME280;24936;46.328;11.026;2024-03-02T09:19:55;93350.69;;;6.21;100.00
39223;BME280;24936;46.328;11.026;2024-03-02T09:22:21;93352.22;;;6.23;100.00
39223;BME280;24936;46.328;11.026;2024-03-02T09:24:46;93353.53;;;6.37;100.00
39223;BME280;24936;46.328;11.026;2024-03-02T09:27:12;93349.97;;;6.38;100.00
39223;BME280;24936;46.328;11.026;2024-03-02T09:29:37;93348.84;;;6.41;100.00
39223;BME280;24936;46.328;11.026;2024-03-02T09:32:04;93346.66;;;6.46;100.00
39223;BME280;24936;46.328;11.026;2024-03-02T09:34:31;93352.13;;;6.53;100.00
39223;BME280;24936;46.328;11.026;2024-03-02T09:36:57;93358.06;;;6.93;100.00
39223;BME280;24936;46.328;11.026;2024-03-02T09:39:22;93374.00;;;7.27;100.00
39223;BME280;24936;46.328;11.026;2024-03-02T09:41:48;93381.16;;;7.25;100.00
39223;BME280;24936;46.328;11.026;2024-03-02T09:44:14;93397.66;;;7.54;100.00
39223;BME280;24936;46.328;11.026;2024-03-02T09:46:39;93394.41;;;7.88;100.00
39223;BME280;24936;46.328;11.026;2024-03-02T09:49:05;93413.13;;;8.11;100.00
39223;BME280;24936;46.328;11.026;2024-03-02T09:51:31;93423.00;;;8.53;100.00
39223;BME280;24936;46.328;11.026;2024-03-02T09:53:57;93427.38;;;8.71;100.00
39223;BME280;24936;46.328;11.026;2024-03-02T09:56:22;93434.75;;;8.94;100.00
39223;BME280;24936;46.328;11.026;2024-03-02T09:58:48;93454.44;;;8.71;100.00
39223;BME280;24936;46.328;11.026;2024-03-02T10:01:13;93452.97;;;8.51;100.00
39223;BME280;24936;46.328;11.026;2024-03-02T10:03:39;93455.84;;;8.84;100.00
39223;BME280;24936;46.328;11.026;2024-03-02T10:06:24;93455.06;;;9.18;100.00
39223;BME280;24936;46.328;11.026;2024-03-02T10:08:50;93469.00;;;9.18;100.00
39223;BME280;24936;46.328;11.026;2024-03-02T10:11:28;93479.28;;;9.38;100.00
39223;BME280;24936;46.328;11.026;2024-03-02T10:14:07;93490.44;;;9.40;100.00
39223;BME280;24936;46.328;11.026;2024-03-02T10:16:35;93493.28;;;9.12;100.00
39223;BME280;24936;46.328;11.026;2024-03-02T10:21:40;93490.41;;;10.09;100.00
39223;BME280;24936;46.328;11.026;2024-03-02T10:24:07;93496.03;;;11.47;100.00
39223;BME280;24936;46.328;11.026;2024-03-02T10:26:33;93507.06;;;11.99;100.00
39223;BME280;24936;46.328;11.026;2024-03-02T10:28:58;93510.22;;;10.47;100.00
39223;BME280;24936;46.328;11.026;2024-03-02T10:31:25;93508.16;;;10.24;100.00
39223;BME280;24936;46.328;11.026;2024-03-02T10:33:54;93497.59;;;9.99;100.00
39223;BME280;24936;46.328;11.026;2024-03-02T10:36:20;93501.91;;;10.17;100.00
39223;BME280;24936;46.328;11.026;2024-03-02T10:38:46;93488.84;;;10.66;100.00
39223;BME280;24936;46.328;11.026;2024-03-02T10:41:17;93490.16;;;11.12;100.00
39223;BME280;24936;46.328;11.026;2024-03-02T10:43:43;93493.78;;;11.75;100.00
39223;BME280;24936;46.328;11.026;2024-03-02T10:46:14;93500.88;;;11.67;100.00
39223;BME280;24936;46.328;11.026;2024-03-02T10:48:44;93503.53;;;11.67;100.00
39223;BME280;24936;46.328;11.026;2024-03-02T10:51:11;93496.72;;;12.20;100.00
39223;BME280;24936;46.328;11.026;2024-03-02T10:53:37;93502.25;;;11.54;100.00
39223;BME280;24936;46.328;11.026;2024-03-02T10:56:05;93493.38;;;11.47;100.00
39223;BME280;24936;46.328;11.026;2024-03-02T10:58:32;93489.03;;;10.57;100.00
39223;BME280;24936;46.328;11.026;2024-03-02T11:01:02;93480.47;;;10.96;100.00
39223;BME280;24936;46.328;11.026;2024-03-02T11:03:34;93495.44;;;10.46;100.00
39223;BME280;24936;46.328;11.026;2024-03-02T11:06:00;93489.03;;;9.97;100.00
39223;BME280;24936;46.328;11.026;2024-03-02T11:08:32;93483.63;;;9.21;100.00
39223;BME280;24936;46.328;11.026;2024-03-02T11:11:03;93490.72;;;9.29;100.00
39223;BME280;24936;46.328;11.026;2024-03-02T11:13:32;93479.91;;;9.32;100.00
39223;BME280;24936;46.328;11.026;2024-03-02T11:16:19;93488.50;;;8.90;100.00
39223;BME280;24936;46.328;11.026;2024-03-02T11:18:48;93475.97;;;9.01;100.00
39223;BME280;24936;46.328;11.026;2024-03-02T11:21:15;93468.88;;;8.94;100.00
39223;BME280;24936;46.328;11.026;2024-03-02T11:23:41;93483.97;;;8.74;100.00
39223;BME280;24936;46.328;11.026;2024-03-02T11:26:22;93471.31;;;9.22;100.00
39223;BME280;24936;46.328;11.026;2024-03-02T11:28:50;93465.38;;;9.11;100.00
39223;BME280;24936;46.328;11.026;2024-03-02T11:31:16;93466.59;;;8.99;100.00
39223;BME280;24936;46.328;11.026;2024-03-02T11:33:42;93458.38;;;8.94;100.00
39223;BME280;24936;46.328;11.026;2024-03-02T11:36:08;93460.91;;;9.03;100.00
39223;BME280;24936;46.328;11.026;2024-03-02T11:38:35;93447.66;;;8.87;100.00
39223;BME280;24936;46.328;11.026;2024-03-02T11:41:10;93454.94;;;8.75;100.00
39223;BME280;24936;46.328;11.026;2024-03-02T11:43:40;93453.84;;;8.60;100.00
39223;BME280;24936;46.328;11.026;2024-03-02T11:46:07;93456.91;;;8.99;100.00
39223;BME280;24936;46.328;11.026;2024-03-02T11:48:33;93453.00;;;8.77;100.00
39223;BME280;24936;46.328;11.026;2024-03-02T11:51:00;93448.97;;;8.65;100.00
39223;BME280;24936;46.328;11.026;2024-03-02T11:53:27;93438.88;;;8.70;100.00
39223;BME280;24936;46.328;11.026;2024-03-02T11:55:57;93438.19;;;8.68;100.00
39223;BME280;24936;46.328;11.026;2024-03-02T11:58:23;93431.44;;;8.65;100.00
39223;BME280;24936;46.328;11.026;2024-03-02T12:00:53;93437.41;;;9.02;100.00
39223;BME280;24936;46.328;11.026;2024-03-02T12:03:22;93441.69;;;9.03;100.00
39223;BME280;24936;46.328;11.026;2024-03-02T12:05:52;93433.06;;;8.84;100.00
39223;BME280;24936;46.328;11.026;2024-03-02T12:08:18;93434.16;;;8.82;100.00
39223;BME280;24936;46.328;11.026;2024-03-02T12:11:00;93434.38;;;8.62;100.00
39223;BME280;24936;46.328;11.026;2024-03-02T12:13:26;93430.47;;;8.66;100.00
39223;BME280;24936;46.328;11.026;2024-03-02T12:15:53;93431.75;;;8.88;100.00
39223;BME280;24936;46.328;11.026;2024-03-02T12:18:20;93419.13;;;9.18;100.00
39223;BME280;24936;46.328;11.026;2024-03-02T12:20:46;93417.63;;;9.51;100.00
39223;BME280;24936;46.328;11.026;2024-03-02T12:23:14;93426.81;;;9.55;100.00
39223;BME280;24936;46.328;11.026;2024-03-02T12:25:39;93429.78;;;9.52;100.00
39223;BME280;24936;46.328;11.026;2024-03-02T12:28:05;93421.81;;;9.78;100.00
39223;BME280;24936;46.328;11.026;2024-03-02T12:30:34;93425.47;;;9.93;100.00
39223;BME280;24936;46.328;11.026;2024-03-02T12:33:00;93419.25;;;10.19;100.00
39223;BME280;24936;46.328;11.026;2024-03-02T12:35:25;93422.13;;;10.51;100.00
39223;BME280;24936;46.328;11.026;2024-03-02T12:37:52;93423.88;;;10.34;100.00
39223;BME280;24936;46.328;11.026;2024-03-02T12:40:19;93418.31;;;10.53;100.00
39223;BME280;24936;46.328;11.026;2024-03-02T12:42:45;93427.53;;;10.41;100.00
39223;BME280;24936;46.328;11.026;2024-03-02T12:45:11;93424.56;;;10.85;100.00
39223;BME280;24936;46.328;11.026;2024-03-02T12:47:39;93434.75;;;10.47;100.00
39223;BME280;24936;46.328;11.026;2024-03-02T12:50:06;93426.19;;;10.37;100.00
39223;BME280;24936;46.328;11.026;2024-03-02T12:52:32;93429.97;;;10.67;100.00